Terminal Aerodrome Forecast
Issued by NWS Brownsville, TX

Home | Current Version | Previous Version | Text Only | Print | Product List | Glossary On
Versions: 1 2 3 4 5 6 7 8 9 10 11 12 13 14 15 16 17 18 19 20 21
000
FTUS44 KBRO 181200 AAA
TAFHRL
TAF AMD
KHRL 181225Z 1812/1912 12003KT P6SM FEW025 SCT250
      TEMPO 1812/1813 5SM BR
     FM181500 16012KT P6SM SCT025 BKN035
     FM182100 15014KT P6SM SCT040
     FM190300 15007KT P6SM BKN250=

USA.gov is the U.S. government's official web portal to all federal, state and local government web resources and services.